Time;durP1;ratioP1;P1;durP2;ratioP2;P2;SDS_P1;SDS_P2;PMS_P1;PMS_P2;Temp;Humidity;BMP_temperature;BMP_pressure;BME280_temperature;BME280_humidity;BME280_pressure;Samples;Min_cycle;Max_cycle;Signal;HPM_P1;HPM_P2
2022/01/23 00:00:40;;;;;;;23.70;13.15;;;;;;;-2.25;100.00;98195.16;5031494;28;20081;-65
2022/01/23 00:03:14;;;;;;;23.98;13.02;;;;;;;-2.28;100.00;98192.97;5029715;28;20462;-65
2022/01/23 00:05:42;;;;;;;24.50;12.95;;;;;;;-2.38;100.00;98197.13;5034325;28;20106;-66
2022/01/23 00:08:10;;;;;;;25.70;14.60;;;;;;;-2.41;100.00;98200.31;5031329;28;20076;-64
2022/01/23 00:10:35;;;;;;;25.55;13.13;;;;;;;-2.41;100.00;98194.94;5033658;28;20067;-64
2022/01/23 00:13:11;;;;;;;26.42;13.23;;;;;;;-2.39;100.00;98194.72;5036302;28;20494;-63
2022/01/23 00:18:22;;;;;;;23.50;13.20;;;;;;;-2.23;100.00;98198.41;5031176;28;20040;-65
2022/01/23 00:20:48;;;;;;;27.52;14.10;;;;;;;-2.20;100.00;98196.03;5033682;28;20083;-64
2022/01/23 00:23:28;;;;;;;23.45;11.82;;;;;;;-2.21;100.00;98201.69;5029139;28;20033;-65
2022/01/23 00:31:23;;;;;;;26.58;12.77;;;;;;;-2.33;100.00;98197.19;5033681;28;20683;-64
2022/01/23 00:33:50;;;;;;;23.15;11.65;;;;;;;-2.32;100.00;98188.09;5040084;28;20043;-65
2022/01/23 00:36:15;;;;;;;22.20;10.85;;;;;;;-2.41;100.00;98194.13;5032988;28;20091;-64
2022/01/23 00:38:41;;;;;;;21.15;10.93;;;;;;;-2.22;100.00;98198.16;5039930;28;20161;-64
2022/01/23 00:41:06;;;;;;;20.75;10.65;;;;;;;-2.10;100.00;98194.56;5033749;28;20037;-65
2022/01/23 00:43:34;;;;;;;24.10;10.75;;;;;;;-2.21;100.00;98191.75;5038820;28;20045;-64
2022/01/23 00:48:37;;;;;;;22.33;10.90;;;;;;;-2.27;100.00;98181.97;5036669;28;20033;-64
2022/01/23 00:51:03;;;;;;;20.70;11.60;;;;;;;-2.27;100.00;98181.97;5034442;28;20041;-64
2022/01/23 00:53:28;;;;;;;19.35;10.57;;;;;;;-2.41;100.00;98186.06;5037115;28;20045;-65
2022/01/23 00:55:55;;;;;;;22.92;10.85;;;;;;;-2.63;100.00;98184.16;5037892;28;20037;-66
2022/01/23 00:58:20;;;;;;;21.85;10.95;;;;;;;-2.77;100.00;98186.34;5032583;28;20095;-65
2022/01/23 01:00:45;;;;;;;21.75;11.68;;;;;;;-2.79;100.00;98182.25;5034917;28;20065;-65
2022/01/23 01:03:11;;;;;;;24.67;12.15;;;;;;;-2.83;100.00;98187.31;5029985;28;20044;-64
2022/01/23 01:05:37;;;;;;;24.65;12.60;;;;;;;-2.97;100.00;98181.47;5037358;28;20460;-66
2022/01/23 01:08:04;;;;;;;24.92;12.45;;;;;;;-3.02;100.00;98185.94;5037916;28;20703;-64
2022/01/23 01:11:35;;;;;;;23.33;11.88;;;;;;;-2.93;100.00;98189.84;5049928;28;20406;-65
2022/01/23 01:13:18;;;;;;;21.50;12.43;;;;;;;-3.06;100.00;98190.97;5026282;28;20044;-65
2022/01/23 01:16:01;;;;;;;24.15;11.88;;;;;;;-3.09;100.00;98189.56;5038202;28;20465;-65
2022/01/23 01:32:10;;;;;;;20.45;12.05;;;;;;;-1.94;100.00;98216.00;5026615;28;20065;-65
2022/01/23 01:34:41;;;;;;;23.67;12.45;;;;;;;-1.86;100.00;98214.75;5034032;28;20045;-64
2022/01/23 01:37:09;;;;;;;19.95;11.70;;;;;;;-1.76;100.00;98216.78;5031674;28;20053;-64
2022/01/23 01:39:35;;;;;;;22.42;12.38;;;;;;;-1.73;100.00;98206.34;5037567;28;20041;-66
2022/01/23 01:42:00;;;;;;;23.08;12.10;;;;;;;-1.68;100.00;98213.63;5039938;28;20044;-65
2022/01/23 01:44:26;;;;;;;22.20;12.05;;;;;;;-1.67;100.00;98201.84;5035287;28;20059;-65
2022/01/23 01:46:51;;;;;;;25.65;12.38;;;;;;;-1.65;100.00;98198.91;5040578;28;20478;-66
2022/01/23 01:49:26;;;;;;;22.80;12.77;;;;;;;-1.62;100.00;98201.91;5032567;28;20068;-65
2022/01/23 01:51:53;;;;;;;25.67;12.18;;;;;;;-1.61;100.00;98197.34;5039159;28;20043;-65
2022/01/23 01:54:21;;;;;;;21.15;12.43;;;;;;;-1.62;100.00;98198.38;5033853;28;20037;-63
2022/01/23 01:57:11;;;;;;;23.58;11.75;;;;;;;-1.65;100.00;98193.53;5044668;28;20108;-65
2022/01/23 02:10:28;;;;;;;22.88;12.32;;;;;;;-1.48;100.00;98190.75;5031960;28;20049;-65
2022/01/23 02:13:09;;;;;;;24.92;12.82;;;;;;;-1.55;100.00;98180.19;5037917;28;20039;-64
2022/01/23 02:51:09;;;;;;;21.92;12.25;;;;;;;-1.05;100.00;98187.16;5024726;28;20037;-67
2022/01/23 02:53:52;;;;;;;25.55;12.77;;;;;;;-0.98;100.00;98182.41;5026075;28;20120;-66
2022/01/23 02:56:22;;;;;;;23.88;12.40;;;;;;;-0.90;100.00;98181.16;5028200;28;20055;-65
2022/01/23 02:58:57;;;;;;;27.90;13.27;;;;;;;-1.07;100.00;98178.56;5028946;28;20892;-66
2022/01/23 03:01:27;;;;;;;24.63;11.73;;;;;;;-1.10;100.00;98179.06;5028707;28;20975;-63
2022/01/23 03:03:59;;;;;;;23.05;12.18;;;;;;;-1.14;100.00;98180.63;5027536;28;20561;-64
2022/01/23 03:28:03;;;;;;;23.25;12.88;;;;;;;-1.35;100.00;98180.44;5022159;28;20547;-65
2022/01/23 03:30:27;;;;;;;29.88;15.38;;;;;;;-1.45;100.00;98192.97;5026568;28;20638;-64
2022/01/23 03:32:53;;;;;;;28.42;13.50;;;;;;;-1.44;100.00;98184.66;5036943;28;20052;-66
2022/01/23 03:35:21;;;;;;;25.52;13.70;;;;;;;-1.42;100.00;98189.78;5016505;28;20123;-65
2022/01/23 03:37:48;;;;;;;27.42;14.25;;;;;;;-1.42;100.00;98195.94;5036556;28;20127;-65
2022/01/23 03:40:15;;;;;;;26.77;13.85;;;;;;;-1.38;100.00;98210.50;5026573;28;20037;-65
2022/01/23 03:42:42;;;;;;;30.80;14.80;;;;;;;-1.42;100.00;98195.94;5031766;28;20048;-65
2022/01/23 03:49:31;;;;;;;27.67;13.90;;;;;;;-0.82;100.00;98196.00;5032001;28;20371;-65
2022/01/23 03:50:39;;;;;;;30.67;14.30;;;;;;;-0.58;100.00;98204.53;5034788;28;20048;-65
2022/01/23 03:53:05;;;;;;;26.70;13.65;;;;;;;-0.41;100.00;98204.41;5030643;28;20098;-63
2022/01/23 03:55:31;;;;;;;28.30;12.93;;;;;;;-0.36;100.00;98198.22;5026232;28;20037;-64
2022/01/23 03:57:57;;;;;;;25.00;12.82;;;;;;;-0.36;100.00;98185.59;5032001;28;20045;-63
2022/01/23 04:00:23;;;;;;;28.23;13.40;;;;;;;-0.40;100.00;98188.00;5020417;28;20048;-65
2022/01/23 04:02:49;;;;;;;27.15;14.30;;;;;;;-0.43;100.00;98190.38;5036783;28;20045;-67
2022/01/23 04:05:16;;;;;;;22.50;12.85;;;;;;;-0.43;100.00;98201.97;5028723;28;20044;-65
2022/01/23 04:07:42;;;;;;;30.85;14.23;;;;;;;-0.64;100.00;98194.78;5052034;28;20033;-66
2022/01/23 04:10:10;;;;;;;25.98;13.68;;;;;;;-0.66;100.00;98186.97;5032846;28;20045;-66
2022/01/23 04:31:46;;;;;;;31.85;16.10;;;;;;;-0.26;100.00;98190.22;5025993;28;20512;-64
2022/01/23 04:32:09;;;;;;;27.13;14.45;;;;;;;-0.51;100.00;98185.47;5037062;28;20107;-66
2022/01/23 04:45:24;;;;;;;35.15;16.10;;;;;;;-0.83;100.00;98187.13;5029358;28;20406;-63
2022/01/23 05:04:23;;;;;;;28.88;14.18;;;;;;;-0.23;100.00;98187.81;5032282;28;20119;-65
2022/01/23 05:07:09;;;;;;;27.33;13.93;;;;;;;-0.10;100.00;98197.31;5032323;28;20052;-67
2022/01/23 05:09:35;;;;;;;26.33;14.38;;;;;;;-0.03;100.00;98205.97;5028952;28;20037;-67
2022/01/23 05:12:05;;;;;;;24.60;14.20;;;;;;;0.05;100.00;98203.88;5034081;28;20132;-65
2022/01/23 05:14:36;;;;;;;27.70;13.15;;;;;;;0.07;100.00;98212.50;5039609;28;20367;-66
2022/01/23 05:17:03;;;;;;;25.65;13.32;;;;;;;0.04;100.00;98213.84;5040434;28;20052;-66
2022/01/23 05:19:29;;;;;;;28.05;13.38;;;;;;;0.05;100.00;98222.72;5029838;28;20041;-67
2022/01/23 05:24:44;;;;;;;31.30;14.48;;;;;;;0.03;100.00;98214.91;5043706;28;20076;-65
2022/01/23 05:27:10;;;;;;;26.70;14.23;;;;;;;0.04;100.00;98213.00;5033160;28;20726;-65
2022/01/23 05:29:36;;;;;;;24.80;13.50;;;;;;;0.06;100.00;98219.78;5042799;28;20404;-64
2022/01/23 05:32:04;;;;;;;27.52;14.18;;;;;;;0.05;100.00;98214.66;5025597;28;20079;-64
2022/01/23 05:34:30;;;;;;;25.00;13.45;;;;;;;0.07;100.00;98217.88;5040314;28;20052;-66
2022/01/23 05:36:56;;;;;;;26.05;14.02;;;;;;;0.01;100.00;98210.84;5037320;28;20071;-65
2022/01/23 05:39:24;;;;;;;26.67;13.50;;;;;;;0.05;100.00;98211.94;5032418;28;20045;-65
2022/01/23 05:41:59;;;;;;;27.23;13.93;;;;;;;0.09;100.00;98208.47;5025114;28;20060;-65
2022/01/23 05:44:25;;;;;;;24.85;13.23;;;;;;;0.03;100.00;98212.22;5025709;28;20064;-66
2022/01/23 05:46:50;;;;;;;24.02;13.45;;;;;;;0.05;100.00;98211.94;5033211;28;20068;-65
2022/01/23 05:49:16;;;;;;;28.30;13.45;;;;;;;0.04;100.00;98207.63;5029714;28;20628;-63
2022/01/23 05:51:41;;;;;;;29.05;14.27;;;;;;;0.05;100.00;98199.28;5039981;28;20064;-65
2022/01/23 05:54:07;;;;;;;25.88;14.10;;;;;;;0.05;100.00;98193.09;5034084;28;20043;-64
2022/01/23 05:56:32;;;;;;;27.02;13.43;;;;;;;0.06;100.00;98192.84;5020345;28;20042;-65
2022/01/23 05:58:58;;;;;;;27.98;13.70;;;;;;;0.04;100.00;98192.28;5037650;28;20115;-65
2022/01/23 06:01:24;;;;;;;25.77;13.85;;;;;;;-0.03;100.00;98197.09;5029747;28;20892;-64
2022/01/23 06:03:49;;;;;;;33.30;15.48;;;;;;;0.02;100.00;98190.91;5047498;28;20490;-65
2022/01/23 06:06:15;;;;;;;27.33;14.75;;;;;;;0.04;100.00;98178.81;5022942;28;20103;-66
2022/01/23 06:08:40;;;;;;;30.00;13.63;;;;;;;-0.09;100.00;98181.97;5038827;28;20032;-66
2022/01/23 06:11:05;;;;;;;28.00;14.00;;;;;;;-0.56;100.00;98188.94;5031047;28;20065;-64
2022/01/23 06:13:33;;;;;;;29.73;15.18;;;;;;;-0.79;100.00;98187.41;5025930;28;20049;-65
2022/01/23 06:15:59;;;;;;;29.33;15.20;;;;;;;-1.04;100.00;98207.63;5034200;28;20065;-66
2022/01/23 06:18:25;;;;;;;33.15;16.13;;;;;;;-1.14;100.00;98218.28;5030832;28;20926;-65
2022/01/23 06:20:50;;;;;;;33.50;17.45;;;;;;;-1.13;100.00;98224.47;5039164;28;20049;-64
2022/01/23 06:23:16;;;;;;;41.05;18.30;;;;;;;-1.14;100.00;98231.72;5028760;28;20044;-65
2022/01/23 06:25:47;;;;;;;36.03;18.05;;;;;;;-1.04;100.00;98225.66;5040328;28;20094;-65
2022/01/23 06:28:27;;;;;;;34.80;16.90;;;;;;;-0.86;100.00;98214.53;5029962;28;20040;-66
2022/01/23 06:30:53;;;;;;;38.35;18.17;;;;;;;-0.67;100.00;98223.00;5037170;28;20075;-66
2022/01/23 06:33:18;;;;;;;30.55;16.23;;;;;;;-0.48;100.00;98222.66;5046411;28;20144;-63
2022/01/23 06:35:44;;;;;;;34.25;17.63;;;;;;;-0.28;100.00;98230.88;5034625;28;20045;-65
2022/01/23 06:38:09;;;;;;;35.85;17.77;;;;;;;-0.27;100.00;98231.66;5031165;28;20052;-64
2022/01/23 06:40:34;;;;;;;30.25;16.70;;;;;;;-0.44;100.00;98231.81;5029308;28;20057;-65
2022/01/23 06:43:00;;;;;;;39.42;17.45;;;;;;;-0.55;100.00;98230.13;5032143;28;20048;-66
2022/01/23 06:45:28;;;;;;;38.83;17.65;;;;;;;-0.61;100.00;98211.25;5031453;28;20040;-65
2022/01/23 06:47:54;;;;;;;34.00;16.95;;;;;;;-0.49;100.00;98208.34;5036156;28;20091;-66
2022/01/23 06:50:19;;;;;;;39.75;18.45;;;;;;;-0.36;100.00;98209.81;5030224;28;20044;-63
2022/01/23 06:52:45;;;;;;;35.03;17.73;;;;;;;-0.27;100.00;98204.75;5037508;28;20048;-65
2022/01/23 06:55:10;;;;;;;37.80;17.88;;;;;;;-0.21;100.00;98211.81;5032572;28;20045;-64
2022/01/23 06:57:36;;;;;;;32.20;16.33;;;;;;;-0.11;100.00;98219.13;5033592;28;20056;-65
2022/01/23 07:00:01;;;;;;;32.20;16.35;;;;;;;-0.04;100.00;98220.53;5032444;28;20043;-66
2022/01/23 07:02:27;;;;;;;36.05;17.13;;;;;;;0.01;100.00;98216.25;5024219;28;20044;-64
2022/01/23 07:04:52;;;;;;;31.85;16.50;;;;;;;0.05;100.00;98233.50;5037302;28;20108;-66
2022/01/23 07:07:18;;;;;;;30.58;15.10;;;;;;;0.11;100.00;98243.22;5027473;28;20141;-66
2022/01/23 07:09:43;;;;;;;31.30;14.88;;;;;;;0.06;100.00;98245.91;5034472;28;20033;-66
2022/01/23 07:12:09;;;;;;;26.20;14.10;;;;;;;-0.03;100.00;98245.59;5028085;28;20056;-66
2022/01/23 07:14:34;;;;;;;26.17;14.05;;;;;;;0.03;100.00;98241.84;5025020;28;20486;-65
2022/01/23 07:17:00;;;;;;;29.08;13.75;;;;;;;0.09;100.00;98246.22;5034681;28;20136;-65
2022/01/23 07:19:25;;;;;;;30.98;14.73;;;;;;;0.01;100.00;98248.56;5028119;28;20057;-65
2022/01/23 07:21:51;;;;;;;27.30;15.23;;;;;;;0.07;100.00;98252.91;5035405;28;20052;-65
2022/01/23 07:24:16;;;;;;;28.92;14.95;;;;;;;0.26;100.00;98256.78;5030683;28;20045;-65
2022/01/23 07:26:41;;;;;;;31.40;15.68;;;;;;;0.36;100.00;98256.03;5038379;28;20037;-65
2022/01/23 07:29:07;;;;;;;29.85;15.38;;;;;;;0.08;100.00;98268.81;5023251;28;20045;-63
2022/01/23 07:34:05;;;;;;;31.08;16.55;;;;;;;-0.12;100.00;98266.00;5032659;28;20489;-64
2022/01/23 07:36:30;;;;;;;34.70;15.52;;;;;;;0.04;100.00;98262.34;5034332;28;20041;-66
2022/01/23 07:38:56;;;;;;;30.00;14.68;;;;;;;0.17;100.00;98263.75;5031564;28;20375;-65
2022/01/23 07:41:22;;;;;;;31.40;15.35;;;;;;;0.32;100.00;98258.44;5042130;28;20238;-66
2022/01/23 07:43:47;;;;;;;33.72;16.17;;;;;;;0.42;100.00;98273.88;5039167;28;20048;-64
2022/01/23 07:46:13;;;;;;;31.17;15.70;;;;;;;0.44;100.00;98257.44;5031089;28;20516;-65
2022/01/23 07:48:39;;;;;;;31.70;16.02;;;;;;;0.47;100.00;98271.19;5039727;28;20055;-66
2022/01/23 07:51:05;;;;;;;33.90;16.98;;;;;;;0.38;100.00;98272.78;5039498;28;20116;-63
2022/01/23 07:53:30;;;;;;;31.35;15.25;;;;;;;-0.05;100.00;98270.09;5046942;28;20529;-65
2022/01/23 07:55:56;;;;;;;35.80;19.48;;;;;;;0.12;100.00;98269.09;5047232;28;20039;-66
2022/01/23 07:58:21;;;;;;;32.97;17.13;;;;;;;0.10;100.00;98274.75;5034681;28;20887;-65
2022/01/23 08:00:49;;;;;;;35.15;17.88;;;;;;;-0.03;100.00;98273.31;5037975;28;20041;-66
2022/01/23 08:03:15;;;;;;;36.35;18.52;;;;;;;0.04;100.00;98278.50;5033033;28;20461;-66
2022/01/23 08:05:43;;;;;;;32.38;16.80;;;;;;;0.09;100.00;98286.63;5041902;28;20153;-64
2022/01/23 08:08:09;;;;;;;31.75;15.55;;;;;;;0.25;100.00;98284.00;5029422;28;20395;-65
2022/01/23 08:10:35;;;;;;;32.38;17.00;;;;;;;0.41;100.00;98290.28;5036270;28;20047;-65
2022/01/23 08:13:03;;;;;;;33.45;15.82;;;;;;;0.49;100.00;98293.31;5039413;28;20453;-65
2022/01/23 08:15:30;;;;;;;34.08;17.52;;;;;;;0.56;100.00;98287.69;5037851;28;20045;-65
2022/01/23 08:18:02;;;;;;;31.00;15.93;;;;;;;0.60;100.00;98296.88;5036666;28;20140;-65
2022/01/23 08:20:29;;;;;;;35.05;16.40;;;;;;;0.62;100.00;98297.41;5033566;28;20052;-66
2022/01/23 08:22:54;;;;;;;34.80;16.70;;;;;;;0.65;100.00;98293.38;5038805;28;20040;-66
2022/01/23 08:25:20;;;;;;;33.10;16.52;;;;;;;0.74;100.00;98297.22;5033704;28;20106;-66
2022/01/23 08:27:45;;;;;;;33.13;15.07;;;;;;;0.83;100.00;98290.22;5037515;28;20041;-65
2022/01/23 08:30:13;;;;;;;41.60;20.60;;;;;;;0.86;100.00;98292.38;5041817;28;20049;-65
2022/01/23 08:32:39;;;;;;;34.42;17.05;;;;;;;0.83;100.00;98294.78;5038043;28;20128;-65
2022/01/23 08:35:04;;;;;;;36.83;16.83;;;;;;;0.89;100.00;98291.06;5037185;28;20468;-63
2022/01/23 08:37:31;;;;;;;29.77;16.33;;;;;;;1.14;100.00;98291.13;5029832;28;20045;-66
2022/01/23 08:39:57;;;;;;;36.03;18.38;;;;;;;1.33;100.00;98299.56;5038752;28;20465;-65
2022/01/23 08:42:23;;;;;;;36.03;17.20;;;;;;;1.45;100.00;98299.28;5035751;28;20119;-66
2022/01/23 08:44:50;;;;;;;32.92;16.60;;;;;;;1.60;100.00;98293.09;5037242;28;20386;-65
2022/01/23 08:47:17;;;;;;;30.55;15.50;;;;;;;1.80;100.00;98303.13;5033897;28;20049;-65
2022/01/23 08:49:48;;;;;;;71.30;28.20;;;;;;;2.03;100.00;98303.63;5040075;28;20103;-66
2022/01/23 08:52:19;;;;;;;36.20;17.13;;;;;;;1.87;100.00;98309.06;5032874;28;20544;-64
2022/01/23 08:54:50;;;;;;;29.05;13.93;;;;;;;1.72;100.00;98309.03;5054873;28;20041;-65
2022/01/23 08:57:16;;;;;;;30.00;15.95;;;;;;;1.70;100.00;98309.31;5043038;28;20041;-64
2022/01/23 08:59:42;;;;;;;31.90;15.55;;;;;;;2.02;100.00;98315.53;5041128;28;20485;-65
2022/01/23 09:02:09;;;;;;;29.50;15.23;;;;;;;2.00;100.00;98315.81;5032533;28;20049;-63
2022/01/23 09:04:35;;;;;;;31.30;16.23;;;;;;;1.96;100.00;98309.31;5035948;28;20060;-65
2022/01/23 09:07:01;;;;;;;35.15;16.10;;;;;;;1.88;100.00;98313.38;5037687;28;20053;-64
2022/01/23 09:09:30;;;;;;;30.45;15.10;;;;;;;1.84;100.00;98315.00;5031623;28;20128;-65
2022/01/23 09:14:21;;;;;;;27.80;15.52;;;;;;;1.79;100.00;98312.28;5031365;28;20497;-66
2022/01/23 09:16:48;;;;;;;30.60;14.85;;;;;;;1.90;100.00;98311.19;5036760;28;20498;-65
2022/01/23 09:19:17;;;;;;;30.80;16.00;;;;;;;2.04;100.00;98306.06;5035276;28;20055;-65
2022/01/23 09:21:43;;;;;;;30.50;15.63;;;;;;;2.21;100.00;98305.78;5043986;28;20071;-66
2022/01/23 09:24:09;;;;;;;27.45;14.63;;;;;;;2.42;100.00;98303.03;5032776;28;20580;-64
2022/01/23 09:26:37;;;;;;;32.85;16.42;;;;;;;2.45;100.00;98302.50;5036808;28;20136;-66
2022/01/23 09:29:12;;;;;;;33.50;16.08;;;;;;;2.45;100.00;98303.31;5034218;28;20037;-64
2022/01/23 09:31:50;;;;;;;30.15;15.13;;;;;;;2.40;100.00;98294.41;5037520;28;20060;-63
2022/01/23 09:34:21;;;;;;;39.13;19.95;;;;;;;2.70;100.00;98304.28;5032244;28;20048;-65
2022/01/23 09:36:47;;;;;;;34.58;18.58;;;;;;;2.75;100.00;98306.19;5037875;28;20080;-65
2022/01/23 09:39:15;;;;;;;72.13;41.92;;;;;;;2.58;100.00;98310.03;5031230;28;20496;-64
2022/01/23 09:41:56;;;;;;;45.20;27.40;;;;;;;2.36;100.00;98302.25;5039112;28;20056;-66
2022/01/23 09:44:22;;;;;;;33.72;18.23;;;;;;;2.77;100.00;98306.72;5043203;28;20238;-66
2022/01/23 09:46:48;;;;;;;27.13;13.93;;;;;;;2.72;100.00;98314.84;5040257;28;20340;-65
2022/01/23 09:49:16;;;;;;;25.58;14.02;;;;;;;2.51;100.00;98323.03;5024296;28;20049;-64
2022/01/23 09:51:43;;;;;;;30.60;14.52;;;;;;;2.34;100.00;98317.94;5028779;28;20060;-64
2022/01/23 09:54:11;;;;;;;37.30;19.55;;;;;;;2.75;100.00;98312.41;5046400;28;20520;-65
2022/01/23 09:56:37;;;;;;;35.03;21.40;;;;;;;3.38;100.00;98311.84;5033481;28;20106;-65
2022/01/23 09:59:02;;;;;;;33.60;19.00;;;;;;;3.64;99.21;98315.22;5037106;28;20033;-63
2022/01/23 10:01:29;;;;;;;23.48;13.23;;;;;;;3.72;98.70;98304.84;5048378;28;20059;-66
2022/01/23 10:03:54;;;;;;;25.02;12.43;;;;;;;4.33;96.91;98311.66;5033419;28;20045;-65
2022/01/23 10:06:20;;;;;;;24.90;13.18;;;;;;;4.69;92.12;98306.66;5027459;28;20043;-66
2022/01/23 10:08:49;;;;;;;21.23;12.55;;;;;;;5.11;89.76;98301.53;5036230;28;20107;-65
2022/01/23 10:11:16;;;;;;;27.20;12.13;;;;;;;4.79;89.82;98305.75;5033556;28;20095;-65
2022/01/23 10:13:42;;;;;;;18.65;10.50;;;;;;;5.02;88.82;98295.16;5035230;28;20073;-66
2022/01/23 10:16:07;;;;;;;19.48;10.05;;;;;;;3.93;93.84;98291.97;5032293;28;20068;-66
2022/01/23 10:18:33;;;;;;;20.48;10.38;;;;;;;4.25;93.28;98287.84;5035561;28;20072;-65
2022/01/23 10:21:00;;;;;;;25.02;12.65;;;;;;;4.64;89.80;98289.63;5035434;28;20044;-66
2022/01/23 10:23:26;;;;;;;23.70;11.55;;;;;;;4.57;86.85;98281.81;5031368;28;20588;-65
2022/01/23 10:25:53;;;;;;;19.65;10.18;;;;;;;5.29;83.70;98280.94;5037352;28;20378;-65
2022/01/23 10:28:29;;;;;;;20.90;10.20;;;;;;;5.65;82.89;98286.66;5028143;28;20047;-65
2022/01/23 10:31:03;;;;;;;18.95;10.52;;;;;;;6.07;80.91;98276.78;5037616;28;20037;-67
2022/01/23 10:33:36;;;;;;;37.97;17.05;;;;;;;6.35;79.71;98278.75;5033192;28;20413;-66
2022/01/23 10:36:05;;;;;;;24.38;12.45;;;;;;;6.41;78.20;98274.81;5033746;28;20585;-63
2022/01/23 10:38:49;;;;;;;31.65;16.33;;;;;;;6.93;76.62;98277.34;5039023;28;20044;-64
2022/01/23 10:49:57;;;;;;;20.55;9.98;;;;;;;6.86;75.07;98243.16;5032721;28;20131;-66
2022/01/23 10:52:34;;;;;;;18.52;10.23;;;;;;;8.03;71.87;98238.00;5023924;28;20048;-66
2022/01/23 10:55:04;;;;;;;19.33;9.80;;;;;;;6.26;77.33;98235.88;5026158;28;20510;-65
2022/01/23 10:57:37;;;;;;;18.60;10.18;;;;;;;5.83;79.11;98221.66;5030283;28;20052;-66
2022/01/23 11:00:06;;;;;;;19.20;10.02;;;;;;;7.02;73.51;98224.59;5025303;28;20044;-63
2022/01/23 11:02:31;;;;;;;19.23;9.63;;;;;;;8.16;71.86;98220.75;5032533;28;20041;-66
2022/01/23 11:05:03;;;;;;;17.50;9.40;;;;;;;9.11;65.57;98208.56;5030678;28;20109;-65
2022/01/23 11:07:30;;;;;;;18.25;9.52;;;;;;;9.05;64.84;98212.53;5038991;28;20049;-65
2022/01/23 11:10:08;;;;;;;14.35;8.35;;;;;;;8.29;67.39;98207.34;5027866;28;20160;-66
2022/01/23 11:18:13;;;;;;;18.23;10.57;;;;;;;7.50;70.71;98211.50;5033378;28;20080;-66
2022/01/23 11:20:41;;;;;;;16.90;8.82;;;;;;;7.25;70.84;98197.34;5039686;28;20090;-66
2022/01/23 11:23:09;;;;;;;17.33;8.90;;;;;;;7.37;71.76;98210.47;5032783;28;20063;-64
2022/01/23 11:25:35;;;;;;;14.52;8.35;;;;;;;7.73;69.18;98201.41;5038626;28;20052;-67
2022/01/23 11:28:03;;;;;;;18.50;8.80;;;;;;;8.34;66.91;98199.81;5035635;28;20041;-67
2022/01/23 11:30:43;;;;;;;14.30;7.82;;;;;;;8.42;65.65;98198.25;5033119;28;20048;-67
2022/01/23 11:33:10;;;;;;;;;;;;;;;8.10;64.15;98204.81;5017039;28;20033;-67
2022/01/23 11:35:35;;;;;;;10.38;6.05;;;;;;;7.62;63.29;98193.47;5015368;28;20702;-66
2022/01/23 11:38:01;;;;;;;17.48;10.20;;;;;;;4.72;77.15;98197.53;5016846;28;20077;-64
2022/01/23 11:40:36;;;;;;;16.00;10.38;;;;;;;4.39;79.37;98191.97;5015164;28;20040;-65
2022/01/23 11:54:02;;;;;;;13.52;8.65;;;;;;;4.44;84.17;98169.38;5016913;28;20041;-65
2022/01/23 11:56:28;;;;;;;13.23;8.68;;;;;;;4.20;82.68;98172.13;5011957;28;20045;-66
2022/01/23 11:59:17;;;;;;;12.82;7.65;;;;;;;4.02;84.51;98174.47;5020129;28;20485;-66
2022/01/23 12:01:45;;;;;;;13.27;8.50;;;;;;;4.20;84.67;98175.63;5031752;28;20040;-67
2022/01/23 12:04:20;;;;;;;14.73;8.38;;;;;;;3.78;86.07;98174.44;5023658;28;20042;-65
2022/01/23 12:07:03;;;;;;;14.00;8.02;;;;;;;3.72;87.07;98183.72;5028647;28;20037;-66
2022/01/23 12:09:29;;;;;;;14.50;7.85;;;;;;;3.76;87.11;98175.81;5032752;28;20057;-66
2022/01/23 12:12:04;;;;;;;14.60;7.93;;;;;;;3.83;85.99;98173.56;5035864;28;20162;-66
2022/01/23 12:17:17;;;;;;;16.30;7.93;;;;;;;3.59;87.46;98170.84;5026725;28;20079;-66
2022/01/23 12:19:44;;;;;;;12.85;7.07;;;;;;;3.49;86.73;98171.72;5025471;28;20051;-63
2022/01/23 12:22:32;;;;;;;14.95;7.72;;;;;;;3.73;87.85;98179.13;5016964;28;20048;-66
2022/01/23 12:25:06;;;;;;;16.00;7.82;;;;;;;3.59;87.99;98182.47;5030677;28;20120;-67
2022/01/23 12:27:31;;;;;;;11.52;6.35;;;;;;;3.79;87.65;98172.53;5038671;28;20132;-67
2022/01/23 12:30:10;;;;;;;11.20;6.40;;;;;;;3.97;83.81;98166.38;5038696;28;20041;-66
2022/01/23 12:32:36;;;;;;;10.20;6.23;;;;;;;3.89;83.54;98166.19;5035095;28;20064;-67
2022/01/23 12:35:05;;;;;;;15.00;6.03;;;;;;;4.09;80.26;98163.28;5033895;28;20491;-66
2022/01/23 12:37:55;;;;;;;9.27;5.22;;;;;;;4.01;82.09;98164.72;5030653;28;20037;-66
2022/01/23 12:40:25;;;;;;;9.70;5.63;;;;;;;3.89;81.46;98153.47;5017692;28;20473;-67
2022/01/23 12:43:21;;;;;;;10.35;6.45;;;;;;;3.77;80.73;98147.63;5030076;28;20397;-66
2022/01/23 12:46:01;;;;;;;12.10;5.40;;;;;;;3.83;80.02;98138.34;5022208;28;20490;-67
2022/01/23 12:48:29;;;;;;;;;;;;;;;3.85;80.31;98138.06;5018599;28;20490;-67
2022/01/23 12:51:06;;;;;;;10.68;5.40;;;;;;;4.05;80.11;98140.53;5035079;28;19940;-65
2022/01/23 12:53:58;;;;;;;9.60;5.65;;;;;;;4.21;79.94;98143.88;5042630;28;20047;-67
2022/01/23 12:56:34;;;;;;;8.57;4.60;;;;;;;3.90;79.76;98133.38;5034683;28;20498;-66
2022/01/23 12:59:07;;;;;;;10.05;5.00;;;;;;;4.13;79.03;98131.78;5031329;28;20044;-66
2022/01/23 13:01:33;;;;;;;6.63;4.22;;;;;;;4.30;79.63;98130.50;5036678;28;20045;-66
2022/01/23 13:04:02;;;;;;;7.93;4.38;;;;;;;4.35;80.30;98133.16;5038339;28;20098;-66
2022/01/23 13:06:39;;;;;;;9.48;4.13;;;;;;;4.59;76.80;98130.38;5038728;28;20064;-67
2022/01/23 13:15:10;;;;;;;10.25;4.97;;;;;;;4.26;74.44;98130.28;5039293;28;20498;-66
2022/01/23 13:17:57;;;;;;;10.32;5.60;;;;;;;4.34;73.90;98129.63;5025191;28;20033;-67
2022/01/23 13:33:03;;;;;;;4.43;3.08;;;;;;;3.77;72.99;98124.03;5030738;28;20041;-66
2022/01/23 13:35:08;;;;;;;6.75;3.38;;;;;;;3.79;74.05;98126.47;5023357;28;20060;-65
2022/01/23 13:37:37;;;;;;;5.47;3.28;;;;;;;3.78;72.53;98128.38;5028984;28;20498;-66
2022/01/23 13:40:09;;;;;;;7.20;3.85;;;;;;;3.84;73.95;98126.41;5041069;28;20037;-62
2022/01/23 13:59:41;;;;;;;6.80;3.55;;;;;;;4.21;71.86;98125.72;5015716;28;20052;-64
2022/01/23 14:02:29;;;;;;;6.03;3.15;;;;;;;3.76;73.11;98124.31;5032062;28;20045;-64
2022/01/23 14:05:07;;;;;;;11.60;3.47;;;;;;;3.56;72.96;98130.75;5011178;28;20042;-64
2022/01/23 14:07:32;;;;;;;7.13;3.20;;;;;;;3.55;73.08;98129.97;5017634;28;20061;-67
2022/01/23 14:10:10;;;;;;;5.97;3.67;;;;;;;3.40;73.62;98130.91;5020287;28;20506;-65
2022/01/23 14:12:35;;;;;;;4.50;3.08;;;;;;;3.32;74.39;98136.94;5025551;28;20041;-65
2022/01/23 14:15:08;;;;;;;6.95;3.53;;;;;;;3.27;74.39;98123.44;5014077;28;20777;-67
2022/01/23 14:17:39;;;;;;;15.90;6.32;;;;;;;3.21;74.93;98122.66;5029270;28;20044;-66
2022/01/23 14:20:16;;;;;;;4.70;2.63;;;;;;;3.23;75.35;98131.31;5037903;28;20041;-65
2022/01/23 14:22:44;;;;;;;5.10;2.65;;;;;;;3.28;74.76;98119.66;5041418;28;20516;-64
2022/01/23 14:25:12;;;;;;;4.88;2.88;;;;;;;3.35;74.62;98122.84;5040593;28;20046;-64
2022/01/23 14:27:39;;;;;;;5.72;2.80;;;;;;;3.38;74.10;98116.03;5021326;28;20211;-65
2022/01/23 14:30:08;;;;;;;8.52;3.28;;;;;;;3.52;73.64;98113.47;5013339;28;20041;-65
2022/01/23 14:32:46;;;;;;;6.97;3.20;;;;;;;3.56;73.67;98112.59;5022274;28;20685;-65
2022/01/23 14:35:14;;;;;;;6.57;3.90;;;;;;;3.69;73.16;98110.31;5023788;28;20056;-64
2022/01/23 14:37:42;;;;;;;7.63;3.28;;;;;;;3.59;73.73;98119.38;5038682;28;20042;-66
2022/01/23 14:40:08;;;;;;;5.43;3.30;;;;;;;3.88;73.53;98110.38;5034337;28;20049;-65
2022/01/23 14:42:34;;;;;;;7.10;3.50;;;;;;;3.86;73.70;98123.44;5046639;28;20053;-66
2022/01/23 14:45:04;;;;;;;10.77;3.92;;;;;;;3.82;74.28;98113.16;5045838;28;20560;-66
2022/01/23 14:47:33;;;;;;;;;;;;;;;3.74;74.13;98104.84;5041512;28;20037;-66
2022/01/23 14:50:00;;;;;;;7.85;4.05;;;;;;;3.60;75.01;98123.66;5038329;28;19916;-66
2022/01/23 14:52:26;;;;;;;7.03;3.60;;;;;;;3.60;75.04;98119.09;5024605;28;20565;-65
2022/01/23 14:54:52;;;;;;;8.80;3.60;;;;;;;3.59;75.54;98122.88;5031710;28;20460;-65
2022/01/23 14:57:19;;;;;;;7.03;3.45;;;;;;;3.56;76.38;98122.63;5027757;28;20069;-65
2022/01/23 14:59:44;;;;;;;7.10;4.35;;;;;;;3.56;76.63;98119.91;5020150;28;20045;-68